Terminal Aerodrome Forecast
Issued by NWS

Home | Current Version | Previous Version | Graphics & Text | Print | Product List | Glossary On
Versions: 1 2 3 4 5 6 7 8 9 10 11 12 13 14 15 16 17 18 19 20 21 22 23 24
000
FTUS41 KCLE 272000 AAB
TAFFDY
TAF AMD
KFDY 272029Z 2720/2818 24012G20KT P6SM VCTS BKN025CB OVC040
     FM272200 26014G20KT 5SM -TSRA OVC025CB
      TEMPO 2722/2801 VRB25G35KT 1 1/2SM -TSRA OVC015CB
     FM280100 29010KT P6SM VCSH SCT025 OVC040
     FM280300 29008KT P6SM SCT060 BKN100
     FM280800 29010KT P6SM SCT008 OVC150
     FM281100 31010KT 5SM BR OVC008
     FM281400 33012KT P6SM BKN015
     FM281700 35012G20KT P6SM BKN035=

USA.gov is the U.S. government's official web portal to all federal, state and local government web resources and services.